sensor_id;sensor_type;location;lat;lon;timestamp;pressure;altitude;pressure_sealevel;temperature;humidity
74675;BME280;63200;48.810;12.352;2022-11-20T00:01:21;96951.97;;;0.83;79.73
74675;BME280;63200;48.810;12.352;2022-11-20T00:03:47;96919.69;;;0.73;79.92
74675;BME280;63200;48.810;12.352;2022-11-20T00:06:15;96952.19;;;0.93;80.04
74675;BME280;63200;48.810;12.352;2022-11-20T00:08:41;96953.09;;;0.99;79.90
74675;BME280;63200;48.810;12.352;2022-11-20T00:11:11;96915.28;;;0.66;79.25
74675;BME280;63200;48.810;12.352;2022-11-20T00:13:37;96953.59;;;0.84;79.16
74675;BME280;63200;48.810;12.352;2022-11-20T00:16:04;96950.44;;;0.87;80.07
74675;BME280;63200;48.810;12.352;2022-11-20T00:18:30;96911.78;;;0.66;79.91
74675;BME280;63200;48.810;12.352;2022-11-20T00:21:01;96950.56;;;0.92;79.71
74675;BME280;63200;48.810;12.352;2022-11-20T00:23:27;96956.94;;;0.91;79.72
74675;BME280;63200;48.810;12.352;2022-11-20T00:25:52;96948.13;;;0.91;79.90
74675;BME280;63200;48.810;12.352;2022-11-20T00:28:17;96953.00;;;0.94;79.90
74675;BME280;63200;48.810;12.352;2022-11-20T00:30:42;96946.03;;;0.93;79.62
74675;BME280;63200;48.810;12.352;2022-11-20T00:33:08;96938.28;;;0.79;79.39
74675;BME280;63200;48.810;12.352;2022-11-20T00:35:33;96964.88;;;0.98;79.68
74675;BME280;63200;48.810;12.352;2022-11-20T00:37:58;96959.59;;;1.03;79.78
74675;BME280;63200;48.810;12.352;2022-11-20T00:40:24;96964.72;;;1.05;79.92
74675;BME280;63200;48.810;12.352;2022-11-20T00:42:49;96968.56;;;1.09;79.27
74675;BME280;63200;48.810;12.352;2022-11-20T00:45:14;96962.63;;;1.07;80.14
74675;BME280;63200;48.810;12.352;2022-11-20T00:47:40;96961.72;;;1.01;79.66
74675;BME280;63200;48.810;12.352;2022-11-20T00:50:05;96960.66;;;1.02;79.87
74675;BME280;63200;48.810;12.352;2022-11-20T00:52:31;96959.53;;;0.98;80.22
74675;BME280;63200;48.810;12.352;2022-11-20T00:54:56;96968.34;;;0.98;79.48
74675;BME280;63200;48.810;12.352;2022-11-20T00:57:21;96971.34;;;1.02;80.11
74675;BME280;63200;48.810;12.352;2022-11-20T00:59:47;96972.78;;;0.93;79.85
74675;BME280;63200;48.810;12.352;2022-11-20T01:02:12;96952.56;;;0.73;79.99
74675;BME280;63200;48.810;12.352;2022-11-20T01:04:37;96971.13;;;0.92;80.33
74675;BME280;63200;48.810;12.352;2022-11-20T01:07:02;96971.25;;;0.97;79.56
74675;BME280;63200;48.810;12.352;2022-11-20T01:09:28;96971.94;;;0.92;79.57
74675;BME280;63200;48.810;12.352;2022-11-20T01:11:53;96984.16;;;0.88;80.66
74675;BME280;63200;48.810;12.352;2022-11-20T01:14:19;96951.88;;;0.66;80.30
74675;BME280;63200;48.810;12.352;2022-11-20T01:16:47;96985.91;;;0.82;80.44
74675;BME280;63200;48.810;12.352;2022-11-20T01:19:16;96990.41;;;0.82;80.80
74675;BME280;63200;48.810;12.352;2022-11-20T01:21:43;96983.47;;;0.81;80.38
74675;BME280;63200;48.810;12.352;2022-11-20T01:24:12;96977.41;;;0.74;80.36
74675;BME280;63200;48.810;12.352;2022-11-20T01:26:40;96968.97;;;0.53;80.41
74675;BME280;63200;48.810;12.352;2022-11-20T01:29:08;96995.69;;;0.65;81.34
74675;BME280;63200;48.810;12.352;2022-11-20T01:31:36;96994.03;;;0.64;80.57
74675;BME280;63200;48.810;12.352;2022-11-20T01:34:06;96990.91;;;0.67;80.69
74675;BME280;63200;48.810;12.352;2022-11-20T01:36:35;96961.53;;;0.55;81.48
74675;BME280;63200;48.810;12.352;2022-11-20T01:39:04;96976.84;;;0.83;81.00
74675;BME280;63200;48.810;12.352;2022-11-20T01:41:31;96987.97;;;0.80;80.44
74675;BME280;63200;48.810;12.352;2022-11-20T01:44:18;96984.50;;;0.80;80.61
74675;BME280;63200;48.810;12.352;2022-11-20T01:47:02;96979.63;;;0.89;80.77
74675;BME280;63200;48.810;12.352;2022-11-20T01:49:52;96962.53;;;0.78;80.66
74675;BME280;63200;48.810;12.352;2022-11-20T01:52:23;96977.53;;;0.91;80.57
74675;BME280;63200;48.810;12.352;2022-11-20T01:54:57;96922.59;;;0.59;80.67
74675;BME280;63200;48.810;12.352;2022-11-20T01:57:25;96965.41;;;1.00;80.93
74675;BME280;63200;48.810;12.352;2022-11-20T02:00:14;96971.69;;;1.06;80.49
74675;BME280;63200;48.810;12.352;2022-11-20T02:02:43;96972.50;;;1.06;80.35
74675;BME280;63200;48.810;12.352;2022-11-20T02:05:30;96969.59;;;1.08;80.24
74675;BME280;63200;48.810;12.352;2022-11-20T02:07:59;96965.63;;;1.10;79.61
74675;BME280;63200;48.810;12.352;2022-11-20T02:10:26;96970.16;;;1.10;79.64
74675;BME280;63200;48.810;12.352;2022-11-20T02:12:52;96975.19;;;1.06;79.65
74675;BME280;63200;48.810;12.352;2022-11-20T02:15:38;96962.63;;;0.95;79.21
74675;BME280;63200;48.810;12.352;2022-11-20T02:18:04;96975.97;;;1.07;79.56
74675;BME280;63200;48.810;12.352;2022-11-20T02:20:30;96976.34;;;1.10;79.50
74675;BME280;63200;48.810;12.352;2022-11-20T02:23:09;96939.44;;;0.83;79.82
74675;BME280;63200;48.810;12.352;2022-11-20T02:25:37;96983.41;;;1.16;79.98
74675;BME280;63200;48.810;12.352;2022-11-20T02:28:04;96985.97;;;1.11;79.80
74675;BME280;63200;48.810;12.352;2022-11-20T02:30:30;96982.38;;;1.06;79.49
74675;BME280;63200;48.810;12.352;2022-11-20T02:32:57;96983.66;;;1.03;79.67
74675;BME280;63200;48.810;12.352;2022-11-20T02:37:50;96974.69;;;1.09;79.92
74675;BME280;63200;48.810;12.352;2022-11-20T02:40:17;96969.25;;;1.04;80.25
74675;BME280;63200;48.810;12.352;2022-11-20T02:42:42;96970.84;;;1.17;80.32
74675;BME280;63200;48.810;12.352;2022-11-20T02:45:08;96947.63;;;1.06;79.62
74675;BME280;63200;48.810;12.352;2022-11-20T02:47:34;96966.31;;;1.17;79.82
74675;BME280;63200;48.810;12.352;2022-11-20T02:49:59;96963.88;;;1.16;79.54
74675;BME280;63200;48.810;12.352;2022-11-20T02:52:25;96959.13;;;1.18;79.65
74675;BME280;63200;48.810;12.352;2022-11-20T02:54:51;96930.91;;;0.98;79.89
74675;BME280;63200;48.810;12.352;2022-11-20T02:57:17;96933.81;;;0.97;80.02
74675;BME280;63200;48.810;12.352;2022-11-20T02:59:42;96967.16;;;1.06;80.24
74675;BME280;63200;48.810;12.352;2022-11-20T03:02:08;96963.56;;;1.00;80.29
74675;BME280;63200;48.810;12.352;2022-11-20T03:04:33;96967.84;;;1.13;80.00
74675;BME280;63200;48.810;12.352;2022-11-20T03:06:58;96963.63;;;1.17;80.33
74675;BME280;63200;48.810;12.352;2022-11-20T03:09:24;96965.03;;;1.20;79.88
74675;BME280;63200;48.810;12.352;2022-11-20T03:11:49;96970.84;;;1.17;80.49
74675;BME280;63200;48.810;12.352;2022-11-20T03:14:14;96966.19;;;1.12;80.32
74675;BME280;63200;48.810;12.352;2022-11-20T03:16:40;96951.38;;;1.05;80.08
74675;BME280;63200;48.810;12.352;2022-11-20T03:19:06;96965.38;;;1.24;80.11
74675;BME280;63200;48.810;12.352;2022-11-20T03:21:33;96975.41;;;1.16;80.30
74675;BME280;63200;48.810;12.352;2022-11-20T03:23:58;96945.94;;;0.88;80.05
74675;BME280;63200;48.810;12.352;2022-11-20T03:26:25;96971.34;;;1.14;80.19
74675;BME280;63200;48.810;12.352;2022-11-20T03:28:53;96962.47;;;1.13;80.22
74675;BME280;63200;48.810;12.352;2022-11-20T03:31:22;96963.28;;;1.26;79.83
74675;BME280;63200;48.810;12.352;2022-11-20T03:33:48;96966.88;;;1.31;80.10
74675;BME280;63200;48.810;12.352;2022-11-20T03:36:15;96938.91;;;1.10;79.81
74675;BME280;63200;48.810;12.352;2022-11-20T03:38:41;96909.53;;;0.98;79.85
74675;BME280;63200;48.810;12.352;2022-11-20T03:41:09;96975.22;;;1.35;79.73
74675;BME280;63200;48.810;12.352;2022-11-20T03:43:35;96925.44;;;1.05;79.38
74675;BME280;63200;48.810;12.352;2022-11-20T03:46:00;96966.63;;;1.33;79.72
74675;BME280;63200;48.810;12.352;2022-11-20T03:48:26;96958.94;;;1.37;79.65
74675;BME280;63200;48.810;12.352;2022-11-20T03:50:52;96964.84;;;1.39;79.46
74675;BME280;63200;48.810;12.352;2022-11-20T03:53:18;96940.16;;;1.20;79.62
74675;BME280;63200;48.810;12.352;2022-11-20T03:55:43;96967.06;;;1.42;79.39
74675;BME280;63200;48.810;12.352;2022-11-20T03:58:09;96935.47;;;1.27;79.62
74675;BME280;63200;48.810;12.352;2022-11-20T04:00:35;96940.91;;;1.32;79.63
74675;BME280;63200;48.810;12.352;2022-11-20T04:03:01;96952.88;;;1.41;80.08
74675;BME280;63200;48.810;12.352;2022-11-20T04:05:27;96909.25;;;1.12;79.33
74675;BME280;63200;48.810;12.352;2022-11-20T04:07:53;96924.91;;;1.20;79.26
74675;BME280;63200;48.810;12.352;2022-11-20T04:10:18;96920.28;;;1.15;78.75
74675;BME280;63200;48.810;12.352;2022-11-20T04:12:44;96915.41;;;1.12;78.59
74675;BME280;63200;48.810;12.352;2022-11-20T04:15:09;96942.22;;;1.29;78.41
74675;BME280;63200;48.810;12.352;2022-11-20T04:17:35;96945.13;;;1.28;78.58
74675;BME280;63200;48.810;12.352;2022-11-20T04:20:01;96955.44;;;1.36;78.73
74675;BME280;63200;48.810;12.352;2022-11-20T04:22:26;96920.75;;;1.12;79.21
74675;BME280;63200;48.810;12.352;2022-11-20T04:24:51;96936.06;;;1.29;79.13
74675;BME280;63200;48.810;12.352;2022-11-20T04:27:17;96901.22;;;1.12;79.84
74675;BME280;63200;48.810;12.352;2022-11-20T04:29:42;96924.06;;;1.31;79.72
74675;BME280;63200;48.810;12.352;2022-11-20T04:32:07;96948.34;;;1.42;79.25
74675;BME280;63200;48.810;12.352;2022-11-20T04:34:33;96945.97;;;1.45;79.46
74675;BME280;63200;48.810;12.352;2022-11-20T04:36:58;96942.75;;;1.43;80.24
74675;BME280;63200;48.810;12.352;2022-11-20T04:39:24;96954.69;;;1.53;80.28
74675;BME280;63200;48.810;12.352;2022-11-20T04:41:49;96923.94;;;1.38;80.19
74675;BME280;63200;48.810;12.352;2022-11-20T04:44:34;96947.22;;;1.55;79.99
74675;BME280;63200;48.810;12.352;2022-11-20T04:47:00;96953.16;;;1.57;79.99
74675;BME280;63200;48.810;12.352;2022-11-20T04:49:25;96930.28;;;1.49;79.39
74675;BME280;63200;48.810;12.352;2022-11-20T04:51:53;96930.56;;;1.36;79.65
74675;BME280;63200;48.810;12.352;2022-11-20T04:54:18;96946.97;;;1.39;79.84
74675;BME280;63200;48.810;12.352;2022-11-20T04:56:47;96916.56;;;1.16;80.49
74675;BME280;63200;48.810;12.352;2022-11-20T04:59:12;96934.53;;;1.33;80.72
74675;BME280;63200;48.810;12.352;2022-11-20T05:01:37;96951.56;;;1.44;80.11
74675;BME280;63200;48.810;12.352;2022-11-20T05:04:03;96931.19;;;1.26;79.92
74675;BME280;63200;48.810;12.352;2022-11-20T05:06:28;96914.84;;;1.10;80.47
74675;BME280;63200;48.810;12.352;2022-11-20T05:08:53;96956.50;;;1.35;80.93
74675;BME280;63200;48.810;12.352;2022-11-20T05:11:20;96950.19;;;1.41;80.04
74675;BME280;63200;48.810;12.352;2022-11-20T05:13:46;96953.09;;;1.40;80.82
74675;BME280;63200;48.810;12.352;2022-11-20T05:16:13;96913.41;;;1.20;79.93
74675;BME280;63200;48.810;12.352;2022-11-20T05:18:39;96952.41;;;1.44;80.17
74675;BME280;63200;48.810;12.352;2022-11-20T05:21:06;96965.28;;;1.47;79.83
74675;BME280;63200;48.810;12.352;2022-11-20T05:23:32;96952.47;;;1.49;80.22
74675;BME280;63200;48.810;12.352;2022-11-20T05:25:58;96961.88;;;1.52;80.40
74675;BME280;63200;48.810;12.352;2022-11-20T05:28:25;96936.00;;;1.41;80.50
74675;BME280;63200;48.810;12.352;2022-11-20T05:30:51;96949.25;;;1.47;80.51
74675;BME280;63200;48.810;12.352;2022-11-20T05:33:17;96946.19;;;1.56;79.89
74675;BME280;63200;48.810;12.352;2022-11-20T05:35:43;96953.97;;;1.57;79.57
74675;BME280;63200;48.810;12.352;2022-11-20T05:38:08;96951.19;;;1.52;79.83
74675;BME280;63200;48.810;12.352;2022-11-20T05:40:33;96948.59;;;1.57;79.94
74675;BME280;63200;48.810;12.352;2022-11-20T05:42:59;96921.91;;;1.45;79.77
74675;BME280;63200;48.810;12.352;2022-11-20T05:45:25;96943.41;;;1.50;80.06
74675;BME280;63200;48.810;12.352;2022-11-20T05:47:50;96952.00;;;1.53;80.26
74675;BME280;63200;48.810;12.352;2022-11-20T05:50:15;96940.72;;;1.50;80.11
74675;BME280;63200;48.810;12.352;2022-11-20T05:52:41;96925.66;;;1.44;80.82
74675;BME280;63200;48.810;12.352;2022-11-20T05:55:07;96935.97;;;1.53;80.62
74675;BME280;63200;48.810;12.352;2022-11-20T05:57:33;96952.75;;;1.65;81.05
74675;BME280;63200;48.810;12.352;2022-11-20T05:59:58;96953.34;;;1.67;81.12
74675;BME280;63200;48.810;12.352;2022-11-20T06:02:23;96949.94;;;1.72;81.05
74675;BME280;63200;48.810;12.352;2022-11-20T06:04:49;96927.53;;;1.61;80.89
74675;BME280;63200;48.810;12.352;2022-11-20T06:07:14;96954.34;;;1.78;80.78
74675;BME280;63200;48.810;12.352;2022-11-20T06:09:39;96945.56;;;1.82;80.39
74675;BME280;63200;48.810;12.352;2022-11-20T06:12:05;96948.50;;;1.81;80.78
74675;BME280;63200;48.810;12.352;2022-11-20T06:14:30;96909.56;;;1.56;80.75
74675;BME280;63200;48.810;12.352;2022-11-20T06:16:56;96945.03;;;1.80;80.70
74675;BME280;63200;48.810;12.352;2022-11-20T06:19:21;96934.22;;;1.75;80.93
74675;BME280;63200;48.810;12.352;2022-11-20T06:21:48;96954.78;;;1.87;81.08
74675;BME280;63200;48.810;12.352;2022-11-20T06:24:14;96871.25;;;1.39;80.99
74675;BME280;63200;48.810;12.352;2022-11-20T06:26:40;96917.53;;;1.68;80.91
74675;BME280;63200;48.810;12.352;2022-11-20T06:29:05;96934.31;;;1.80;80.75
74675;BME280;63200;48.810;12.352;2022-11-20T06:31:30;96877.16;;;1.41;80.98
74675;BME280;63200;48.810;12.352;2022-11-20T06:34:00;96917.19;;;1.64;80.76
74675;BME280;63200;48.810;12.352;2022-11-20T06:36:25;96928.38;;;1.78;81.26
74675;BME280;63200;48.810;12.352;2022-11-20T06:38:50;96960.59;;;2.00;80.87
74675;BME280;63200;48.810;12.352;2022-11-20T06:41:19;96936.84;;;1.87;80.66
74675;BME280;63200;48.810;12.352;2022-11-20T06:43:44;96960.13;;;2.04;81.32
74675;BME280;63200;48.810;12.352;2022-11-20T06:46:11;96959.91;;;2.05;80.93
74675;BME280;63200;48.810;12.352;2022-11-20T06:48:37;96900.53;;;1.62;80.95
74675;BME280;63200;48.810;12.352;2022-11-20T06:51:07;96969.31;;;2.08;80.72
74675;BME280;63200;48.810;12.352;2022-11-20T06:53:33;96973.84;;;2.07;80.96
74675;BME280;63200;48.810;12.352;2022-11-20T06:55:59;96970.13;;;2.08;81.27
74675;BME280;63200;48.810;12.352;2022-11-20T06:58:29;96971.75;;;2.09;80.60
74675;BME280;63200;48.810;12.352;2022-11-20T07:01:04;96938.22;;;1.90;80.75
74675;BME280;63200;48.810;12.352;2022-11-20T07:03:30;96968.56;;;2.12;80.94
74675;BME280;63200;48.810;12.352;2022-11-20T07:05:56;96964.66;;;2.03;81.01
74675;BME280;63200;48.810;12.352;2022-11-20T07:08:22;96971.41;;;2.06;80.81
74675;BME280;63200;48.810;12.352;2022-11-20T07:10:48;96960.28;;;1.97;80.83
74675;BME280;63200;48.810;12.352;2022-11-20T07:13:13;96926.19;;;1.75;80.82
74675;BME280;63200;48.810;12.352;2022-11-20T07:15:39;96953.38;;;1.84;81.08
74675;BME280;63200;48.810;12.352;2022-11-20T07:18:04;96967.50;;;1.96;81.32
74675;BME280;63200;48.810;12.352;2022-11-20T07:20:29;96962.47;;;1.83;81.45
74675;BME280;63200;48.810;12.352;2022-11-20T07:22:55;96972.88;;;1.96;81.23
74675;BME280;63200;48.810;12.352;2022-11-20T07:25:25;96962.00;;;2.03;81.40
74675;BME280;63200;48.810;12.352;2022-11-20T07:27:50;96958.03;;;2.06;81.68
74675;BME280;63200;48.810;12.352;2022-11-20T07:30:16;96968.56;;;2.12;81.29
74675;BME280;63200;48.810;12.352;2022-11-20T07:32:42;96929.69;;;1.93;81.19
74675;BME280;63200;48.810;12.352;2022-11-20T07:35:07;96965.25;;;2.22;80.96
74675;BME280;63200;48.810;12.352;2022-11-20T07:37:36;96959.66;;;2.24;81.45
74675;BME280;63200;48.810;12.352;2022-11-20T07:40:01;96928.31;;;2.07;81.58
74675;BME280;63200;48.810;12.352;2022-11-20T07:42:27;96965.25;;;2.39;81.08
74675;BME280;63200;48.810;12.352;2022-11-20T07:44:52;96961.59;;;2.45;81.07
74675;BME280;63200;48.810;12.352;2022-11-20T07:47:18;96961.34;;;2.47;80.83
74675;BME280;63200;48.810;12.352;2022-11-20T07:49:43;96944.47;;;2.46;81.15
74675;BME280;63200;48.810;12.352;2022-11-20T07:52:08;96944.63;;;2.57;81.31
74675;BME280;63200;48.810;12.352;2022-11-20T07:54:33;96952.25;;;2.65;81.45
74675;BME280;63200;48.810;12.352;2022-11-20T07:56:59;96966.09;;;2.79;81.58
74675;BME280;63200;48.810;12.352;2022-11-20T07:59:24;96953.59;;;2.85;81.47
74675;BME280;63200;48.810;12.352;2022-11-20T08:01:49;96951.19;;;2.88;81.27
74675;BME280;63200;48.810;12.352;2022-11-20T08:04:15;96947.09;;;3.03;80.57
74675;BME280;63200;48.810;12.352;2022-11-20T08:06:41;96969.63;;;3.24;80.84
74675;BME280;63200;48.810;12.352;2022-11-20T08:09:06;96963.81;;;3.32;80.57
74675;BME280;63200;48.810;12.352;2022-11-20T08:11:32;96944.75;;;3.28;80.31
74675;BME280;63200;48.810;12.352;2022-11-20T08:14:16;96974.78;;;3.53;80.32
74675;BME280;63200;48.810;12.352;2022-11-20T08:16:46;96953.66;;;3.34;80.20
74675;BME280;63200;48.810;12.352;2022-11-20T08:19:13;96970.00;;;3.55;80.83
74675;BME280;63200;48.810;12.352;2022-11-20T08:21:38;96971.06;;;3.54;81.17
74675;BME280;63200;48.810;12.352;2022-11-20T08:24:04;96963.19;;;3.74;81.16
74675;BME280;63200;48.810;12.352;2022-11-20T08:26:30;96965.78;;;3.91;80.69
74675;BME280;63200;48.810;12.352;2022-11-20T08:28:56;96925.72;;;3.84;80.28
74675;BME280;63200;48.810;12.352;2022-11-20T08:31:23;96960.97;;;4.26;79.63
74675;BME280;63200;48.810;12.352;2022-11-20T08:33:49;96927.53;;;4.06;78.61
74675;BME280;63200;48.810;12.352;2022-11-20T08:36:16;96931.38;;;4.21;78.55
74675;BME280;63200;48.810;12.352;2022-11-20T08:38:42;96956.13;;;4.55;78.82
74675;BME280;63200;48.810;12.352;2022-11-20T08:41:11;96935.03;;;4.42;77.98
74675;BME280;63200;48.810;12.352;2022-11-20T08:43:49;96966.88;;;4.60;77.95
74675;BME280;63200;48.810;12.352;2022-11-20T08:46:14;96940.19;;;4.48;77.96
74675;BME280;63200;48.810;12.352;2022-11-20T08:48:39;96953.13;;;4.52;77.53
74675;BME280;63200;48.810;12.352;2022-11-20T08:51:05;96916.41;;;4.25;77.94
74675;BME280;63200;48.810;12.352;2022-11-20T08:53:30;96937.00;;;4.52;78.04
74675;BME280;63200;48.810;12.352;2022-11-20T08:55:58;96955.13;;;4.72;77.30
74675;BME280;63200;48.810;12.352;2022-11-20T08:58:25;96959.25;;;4.84;77.19
74675;BME280;63200;48.810;12.352;2022-11-20T09:00:50;96957.00;;;4.66;77.40
74675;BME280;63200;48.810;12.352;2022-11-20T09:03:16;96955.63;;;4.63;77.68
74675;BME280;63200;48.810;12.352;2022-11-20T09:05:41;96955.94;;;4.67;77.80
74675;BME280;63200;48.810;12.352;2022-11-20T09:08:08;96925.69;;;4.49;77.75
74675;BME280;63200;48.810;12.352;2022-11-20T09:10:33;96919.22;;;4.45;77.85
74675;BME280;63200;48.810;12.352;2022-11-20T09:12:58;96930.84;;;4.56;77.50
74675;BME280;63200;48.810;12.352;2022-11-20T09:15:24;96965.69;;;4.83;76.96
74675;BME280;63200;48.810;12.352;2022-11-20T09:17:54;96946.03;;;4.78;77.56
74675;BME280;63200;48.810;12.352;2022-11-20T09:20:20;96955.47;;;4.80;76.57
74675;BME280;63200;48.810;12.352;2022-11-20T09:22:45;96959.00;;;4.86;76.83
74675;BME280;63200;48.810;12.352;2022-11-20T09:25:11;96955.19;;;4.82;76.73
74675;BME280;63200;48.810;12.352;2022-11-20T09:27:36;96951.38;;;4.73;76.96
74675;BME280;63200;48.810;12.352;2022-11-20T09:30:02;96968.44;;;4.94;76.95
74675;BME280;63200;48.810;12.352;2022-11-20T09:32:27;96929.81;;;4.62;76.75
74675;BME280;63200;48.810;12.352;2022-11-20T09:34:53;96965.44;;;4.85;76.26
74675;BME280;63200;48.810;12.352;2022-11-20T09:37:18;96959.28;;;4.90;75.97
74675;BME280;63200;48.810;12.352;2022-11-20T09:39:43;96950.94;;;4.91;75.22
74675;BME280;63200;48.810;12.352;2022-11-20T09:42:18;96956.97;;;5.14;76.73
74675;BME280;63200;48.810;12.352;2022-11-20T09:44:57;96958.03;;;5.08;75.16
74675;BME280;63200;48.810;12.352;2022-11-20T09:55:55;96944.00;;;5.00;75.45
74675;BME280;63200;48.810;12.352;2022-11-20T09:58:29;96959.41;;;5.15;74.90
74675;BME280;63200;48.810;12.352;2022-11-20T10:01:03;96959.69;;;5.19;75.32
74675;BME280;63200;48.810;12.352;2022-11-20T10:03:44;96960.19;;;5.11;75.41
74675;BME280;63200;48.810;12.352;2022-11-20T10:06:14;96954.03;;;5.21;75.82
74675;BME280;63200;48.810;12.352;2022-11-20T10:09:19;96954.38;;;5.34;75.27
74675;BME280;63200;48.810;12.352;2022-11-20T10:14:34;96951.13;;;5.27;73.19
74675;BME280;63200;48.810;12.352;2022-11-20T10:17:39;96953.28;;;5.36;73.73
74675;BME280;63200;48.810;12.352;2022-11-20T10:23:50;96945.59;;;5.60;73.01
74675;BME280;63200;48.810;12.352;2022-11-20T10:26:44;96945.06;;;5.68;73.52
74675;BME280;63200;48.810;12.352;2022-11-20T10:29:15;96911.09;;;5.46;72.85
74675;BME280;63200;48.810;12.352;2022-11-20T10:31:55;96932.63;;;5.57;72.63
74675;BME280;63200;48.810;12.352;2022-11-20T10:34:26;96892.97;;;5.16;71.97
74675;BME280;63200;48.810;12.352;2022-11-20T10:37:01;96945.47;;;5.34;72.68
74675;BME280;63200;48.810;12.352;2022-11-20T10:39:39;96939.81;;;5.30;72.67
74675;BME280;63200;48.810;12.352;2022-11-20T10:42:11;96935.22;;;5.26;73.23
74675;BME280;63200;48.810;12.352;2022-11-20T10:44:39;96934.69;;;5.29;72.72
74675;BME280;63200;48.810;12.352;2022-11-20T10:47:27;96927.44;;;5.29;71.68
74675;BME280;63200;48.810;12.352;2022-11-20T10:49:57;96909.09;;;5.16;72.92
74675;BME280;63200;48.810;12.352;2022-11-20T10:55:30;96921.25;;;5.29;72.82
74675;BME280;63200;48.810;12.352;2022-11-20T11:00:41;96932.59;;;5.41;71.82
74675;BME280;63200;48.810;12.352;2022-11-20T11:03:33;96921.28;;;5.39;72.35
74675;BME280;63200;48.810;12.352;2022-11-20T11:08:47;96935.56;;;5.50;72.53
74675;BME280;63200;48.810;12.352;2022-11-20T11:11:22;96922.41;;;5.54;73.19
74675;BME280;63200;48.810;12.352;2022-11-20T11:13:48;96918.34;;;5.46;72.63
74675;BME280;63200;48.810;12.352;2022-11-20T11:16:25;96915.09;;;5.49;72.10
74675;BME280;63200;48.810;12.352;2022-11-20T11:19:02;96918.59;;;5.39;71.84
74675;BME280;63200;48.810;12.352;2022-11-20T11:21:28;96885.13;;;5.14;72.66
74675;BME280;63200;48.810;12.352;2022-11-20T11:24:02;96923.44;;;5.37;71.56
74675;BME280;63200;48.810;12.352;2022-11-20T11:26:28;96898.63;;;5.30;72.69
74675;BME280;63200;48.810;12.352;2022-11-20T11:28:59;96920.19;;;5.35;73.10
74675;BME280;63200;48.810;12.352;2022-11-20T11:31:27;96915.88;;;5.34;73.64
74675;BME280;63200;48.810;12.352;2022-11-20T11:34:04;96901.09;;;5.37;73.14
74675;BME280;63200;48.810;12.352;2022-11-20T11:36:30;96906.75;;;5.40;73.03
74675;BME280;63200;48.810;12.352;2022-11-20T11:38:55;96905.94;;;5.40;72.75
74675;BME280;63200;48.810;12.352;2022-11-20T11:41:24;96877.94;;;5.41;72.61
74675;BME280;63200;48.810;12.352;2022-11-20T11:43:53;96887.38;;;5.48;73.57
74675;BME280;63200;48.810;12.352;2022-11-20T11:46:39;96900.34;;;5.62;73.38
74675;BME280;63200;48.810;12.352;2022-11-20T11:49:17;96898.22;;;5.74;72.96
74675;BME280;63200;48.810;12.352;2022-11-20T11:56:59;96895.78;;;5.62;73.42
74675;BME280;63200;48.810;12.352;2022-11-20T11:59:53;96892.00;;;5.68;72.78
74675;BME280;63200;48.810;12.352;2022-11-20T12:04:58;96891.81;;;6.16;73.01
74675;BME280;63200;48.810;12.352;2022-11-20T12:12:53;96875.00;;;6.66;70.39
74675;BME280;63200;48.810;12.352;2022-11-20T12:15:26;96889.09;;;6.16;70.81
74675;BME280;63200;48.810;12.352;2022-11-20T12:17:52;96875.63;;;6.11;71.90
74675;BME280;63200;48.810;12.352;2022-11-20T12:20:17;96883.69;;;6.37;70.67
74675;BME280;63200;48.810;12.352;2022-11-20T12:23:04;96891.25;;;6.09;71.92
74675;BME280;63200;48.810;12.352;2022-11-20T12:25:36;96853.50;;;5.83;72.57
74675;BME280;63200;48.810;12.352;2022-11-20T12:28:26;96882.03;;;5.79;72.71
74675;BME280;63200;48.810;12.352;2022-11-20T12:31:15;96883.13;;;5.68;71.59
74675;BME280;63200;48.810;12.352;2022-11-20T12:33:57;96889.53;;;5.57;72.80
74675;BME280;63200;48.810;12.352;2022-11-20T12:36:56;96894.94;;;5.46;74.43
74675;BME280;63200;48.810;12.352;2022-11-20T12:39:33;96900.03;;;5.48;74.27
74675;BME280;63200;48.810;12.352;2022-11-20T12:45:41;96885.78;;;5.58;74.57
74675;BME280;63200;48.810;12.352;2022-11-20T12:48:23;96887.41;;;5.59;73.67
74675;BME280;63200;48.810;12.352;2022-11-20T12:56:48;96887.94;;;5.56;74.53
74675;BME280;63200;48.810;12.352;2022-11-20T13:02:14;96870.72;;;5.67;74.30
74675;BME280;63200;48.810;12.352;2022-11-20T13:07:17;96815.50;;;5.33;73.60
74675;BME280;63200;48.810;12.352;2022-11-20T13:09:48;96865.88;;;5.69;74.01
74675;BME280;63200;48.810;12.352;2022-11-20T13:17:28;96874.50;;;5.56;73.78
74675;BME280;63200;48.810;12.352;2022-11-20T13:19:58;96868.53;;;5.48;74.00
74675;BME280;63200;48.810;12.352;2022-11-20T13:22:28;96871.25;;;5.59;74.42
74675;BME280;63200;48.810;12.352;2022-11-20T13:24:53;96831.34;;;5.25;73.51
74675;BME280;63200;48.810;12.352;2022-11-20T13:27:21;96875.00;;;5.47;74.30
74675;BME280;63200;48.810;12.352;2022-11-20T13:30:14;96863.94;;;5.49;74.84
74675;BME280;63200;48.810;12.352;2022-11-20T13:33:01;96874.19;;;5.47;74.68
74675;BME280;63200;48.810;12.352;2022-11-20T13:35:30;96861.81;;;5.46;74.70
74675;BME280;63200;48.810;12.352;2022-11-20T13:38:04;96838.06;;;5.27;74.56
74675;BME280;63200;48.810;12.352;2022-11-20T13:40:30;96842.41;;;5.33;74.98
74675;BME280;63200;48.810;12.352;2022-11-20T13:45:29;96860.47;;;5.48;74.82
74675;BME280;63200;48.810;12.352;2022-11-20T13:47:57;96856.41;;;5.46;74.82
74675;BME280;63200;48.810;12.352;2022-11-20T13:50:39;96850.50;;;5.49;74.08
74675;BME280;63200;48.810;12.352;2022-11-20T13:53:37;96856.44;;;5.51;74.32
74675;BME280;63200;48.810;12.352;2022-11-20T14:01:21;96848.88;;;5.58;74.16
74675;BME280;63200;48.810;12.352;2022-11-20T14:03:48;96849.97;;;5.57;73.59
74675;BME280;63200;48.810;12.352;2022-11-20T14:06:27;96833.25;;;5.40;73.85
74675;BME280;63200;48.810;12.352;2022-11-20T14:08:53;96846.47;;;5.46;74.24
74675;BME280;63200;48.810;12.352;2022-11-20T14:11:22;96807.94;;;5.30;74.84
74675;BME280;63200;48.810;12.352;2022-11-20T14:16:30;96851.84;;;5.57;74.25
74675;BME280;63200;48.810;12.352;2022-11-20T14:18:57;96854.53;;;5.41;74.42